Merck (PN44)
Upper Gwynedd, PA
Field Elevation: 355
Lat: 40°12.97N  Long: 75°16.80W
   
    
Weather Advisories
2021-01-23   18:00 Z
Altimeter 30.12" Hg
Wind 320° @ 8 KT
Gusts 16 KT
Visibility 10 SM
Ceiling BKN052
Temperature -1° C (30° F)
Dewpoint -14° C (7° F)
Relative Humidity 35%
Density Altitude --
Condensation Altitude 7,000 feet
Wind Chill: -6° C (21° F)
Wind and Runways
Indicated Runway = 27
Headwind = 5 kt
Crosswind = 6 kt
History
 
 
 
More Info
All DigiWx sites map
NOAA Forecast
 
Airport IQ 5010
(8PS5) Hershey Medical
(8NJ1) Whitehouse
 
about DigiWx
 
FAA Disclaimer: The data displayed is for advisory purposes only and is not to be used for flight planning or operations. For official data, please call (not available) to hear the current automated AWOS voice message.
  METAR pn44 231800Z AUTO 32008G16KT VIS 10 SM BKN052 M01/M14 A3012